createdAt,value
2023-03-29T00:02:01.304Z,3.25
2023-03-29T00:04:28.145Z,3.24
2023-03-29T00:06:55.215Z,3.10
2023-03-29T00:09:21.751Z,3.05
2023-03-29T00:11:48.285Z,3.02
2023-03-29T00:14:14.624Z,2.96
2023-03-29T00:16:41.285Z,2.86
2023-03-29T00:19:08.153Z,2.84
2023-03-29T00:21:34.458Z,2.80
2023-03-29T00:24:00.762Z,2.72
2023-03-29T00:26:27.441Z,2.74
2023-03-29T00:28:53.750Z,2.67
2023-03-29T00:31:20.214Z,2.61
2023-03-29T00:33:47.370Z,2.63
2023-03-29T00:36:14.561Z,2.64
2023-03-29T00:38:41.037Z,2.71
2023-03-29T00:41:08.774Z,2.78
2023-03-29T00:43:54.356Z,2.73
2023-03-29T00:46:21.462Z,2.68
2023-03-29T00:48:48.425Z,2.63
2023-03-29T00:51:16.925Z,2.59
2023-03-29T00:53:48.837Z,2.65
2023-03-29T00:56:36.969Z,2.76
2023-03-29T00:59:19.002Z,2.80
2023-03-29T01:01:48.232Z,2.93
2023-03-29T01:04:20.530Z,2.90
2023-03-29T01:06:56.669Z,2.87
2023-03-29T01:09:27.496Z,2.76
2023-03-29T01:11:58.370Z,2.74
2023-03-29T01:14:46.325Z,2.71
2023-03-29T01:17:13.338Z,2.64
2023-03-29T01:19:50.077Z,2.61
2023-03-29T01:22:38.931Z,2.61
2023-03-29T01:25:11.155Z,2.68
2023-03-29T01:28:07.032Z,2.72
2023-03-29T01:30:41.251Z,2.64
2023-03-29T01:33:23.639Z,2.61
2023-03-29T01:36:12.501Z,2.60
2023-03-29T01:38:49.217Z,2.59
2023-03-29T01:41:15.674Z,2.58
2023-03-29T01:43:51.790Z,2.58
2023-03-29T01:46:48.184Z,2.64
2023-03-29T01:49:27.364Z,2.58
2023-03-29T01:52:01.146Z,2.67
2023-03-29T01:54:41.777Z,2.67
2023-03-29T01:57:10.341Z,2.69
2023-03-29T01:59:40.389Z,2.85
2023-03-29T02:02:12.101Z,2.86
2023-03-29T02:04:46.139Z,2.74
2023-03-29T02:07:12.917Z,2.60
2023-03-29T02:09:40.210Z,2.60
2023-03-29T02:12:08.557Z,2.67
2023-03-29T02:14:35.466Z,2.62
2023-03-29T02:17:22.166Z,2.73
2023-03-29T02:19:54.917Z,2.67
2023-03-29T02:22:27.573Z,2.56
2023-03-29T02:24:59.150Z,2.65
2023-03-29T02:27:29.243Z,2.63
2023-03-29T02:29:56.181Z,2.72
2023-03-29T02:32:33.680Z,2.87
2023-03-29T02:35:24.942Z,2.44
2023-03-29T02:37:54.936Z,2.46
2023-03-29T02:40:23.418Z,2.33
2023-03-29T02:42:49.846Z,2.47
2023-03-29T02:45:18.746Z,2.66
2023-03-29T02:47:51.451Z,2.67
2023-03-29T02:50:20.625Z,2.73
2023-03-29T02:53:00.329Z,2.67
2023-03-29T02:55:34.919Z,2.62
2023-03-29T02:58:08.534Z,2.75
2023-03-29T03:00:42.900Z,2.69
2023-03-29T03:03:10.506Z,2.80
2023-03-29T03:05:37.265Z,2.82
2023-03-29T03:08:05.352Z,2.85
2023-03-29T03:10:33.629Z,2.69
2023-03-29T03:13:00.259Z,2.70
2023-03-29T03:15:27.757Z,2.74
2023-03-29T03:17:54.688Z,2.81
2023-03-29T03:20:24.008Z,2.83
2023-03-29T03:22:50.741Z,2.91
2023-03-29T03:25:22.293Z,2.96
2023-03-29T03:27:49.695Z,2.93
2023-03-29T03:30:17.232Z,2.99
2023-03-29T03:32:44.548Z,2.99
2023-03-29T03:35:11.644Z,2.93
2023-03-29T03:37:39.556Z,2.76
2023-03-29T03:40:08.717Z,2.66
2023-03-29T03:42:35.121Z,2.50
2023-03-29T03:45:02.419Z,2.40
2023-03-29T03:47:29.151Z,2.12
2023-03-29T03:49:55.504Z,1.94
2023-03-29T03:52:22.450Z,1.93
2023-03-29T03:54:50.091Z,2.06
2023-03-29T03:57:16.528Z,1.93
2023-03-29T03:59:43.309Z,2.00
2023-03-29T04:02:10.226Z,2.03
2023-03-29T04:04:36.714Z,2.04
2023-03-29T04:07:03.875Z,2.07
2023-03-29T04:09:31.124Z,2.09
2023-03-29T04:11:59.058Z,2.08
2023-03-29T04:14:26.707Z,2.07
2023-03-29T04:16:54.121Z,2.04
2023-03-29T04:19:21.892Z,1.96
2023-03-29T04:21:49.401Z,2.00
2023-03-29T04:24:17.079Z,2.15
2023-03-29T04:26:44.293Z,2.27
2023-03-29T04:29:10.879Z,2.29
2023-03-29T04:31:37.365Z,2.39
2023-03-29T04:34:04.237Z,2.55
2023-03-29T04:36:30.848Z,2.41
2023-03-29T04:38:58.720Z,2.56
2023-03-29T04:41:25.042Z,2.63
2023-03-29T04:43:52.060Z,2.68
2023-03-29T04:46:18.753Z,2.72
2023-03-29T04:48:45.129Z,2.75
2023-03-29T04:51:11.962Z,2.92
2023-03-29T04:53:38.325Z,2.97
2023-03-29T04:56:06.108Z,3.04
2023-03-29T04:58:32.916Z,3.04
2023-03-29T05:00:59.516Z,3.07
2023-03-29T05:03:27.493Z,3.16
2023-03-29T05:05:54.066Z,3.21
2023-03-29T05:08:20.521Z,3.23
2023-03-29T05:10:47.871Z,3.28
2023-03-29T05:13:14.361Z,3.37
2023-03-29T05:15:41.740Z,3.42
2023-03-29T05:18:08.457Z,3.54
2023-03-29T05:20:34.790Z,3.47
2023-03-29T05:23:01.335Z,3.52
2023-03-29T05:25:28.234Z,3.70
2023-03-29T05:27:54.567Z,3.70
2023-03-29T05:30:20.912Z,3.78
2023-03-29T05:32:48.237Z,4.02
2023-03-29T05:35:15.298Z,4.04
2023-03-29T05:37:41.880Z,3.85
2023-03-29T05:40:09.239Z,3.84
2023-03-29T05:42:38.169Z,3.93
2023-03-29T05:45:05.191Z,4.01
2023-03-29T05:47:31.660Z,4.00
2023-03-29T05:49:58.575Z,4.08
2023-03-29T05:52:25.168Z,4.10
2023-03-29T05:54:51.673Z,4.12
2023-03-29T05:57:18.365Z,4.22
2023-03-29T05:59:44.883Z,4.22
2023-03-29T06:02:12.282Z,4.19
2023-03-29T06:04:40.173Z,4.30
2023-03-29T06:07:07.028Z,4.42
2023-03-29T06:09:33.524Z,4.29
2023-03-29T06:12:02.137Z,4.30
2023-03-29T06:14:28.867Z,4.32
2023-03-29T06:16:55.271Z,4.24
2023-03-29T06:19:23.056Z,4.24
2023-03-29T06:21:49.788Z,4.34
2023-03-29T06:24:16.184Z,4.32
2023-03-29T06:26:42.903Z,4.29
2023-03-29T06:29:10.202Z,4.36
2023-03-29T06:31:36.644Z,4.42
2023-03-29T06:34:05.006Z,4.46
2023-03-29T06:36:34.184Z,4.59
2023-03-29T06:39:00.827Z,4.63
2023-03-29T06:41:27.513Z,4.66
2023-03-29T06:43:54.680Z,4.75
2023-03-29T06:46:21.072Z,4.79
2023-03-29T06:48:48.449Z,4.85
2023-03-29T06:51:14.779Z,4.89
2023-03-29T06:53:41.372Z,4.85
2023-03-29T06:56:10.243Z,4.92
2023-03-29T06:58:37.274Z,4.99
2023-03-29T07:01:04.278Z,5.02
2023-03-29T07:03:32.177Z,5.02
2023-03-29T07:06:09.509Z,5.09
2023-03-29T07:08:43.978Z,5.13
2023-03-29T07:11:13.153Z,5.19
2023-03-29T07:13:42.237Z,5.27
2023-03-29T07:16:13.131Z,5.35
2023-03-29T07:18:41.454Z,5.48
2023-03-29T07:21:08.968Z,5.53
2023-03-29T07:23:36.335Z,5.59
2023-03-29T07:26:03.821Z,5.73
2023-03-29T07:28:30.639Z,5.80
2023-03-29T07:31:06.768Z,5.95
2023-03-29T07:33:34.845Z,6.10
2023-03-29T07:36:01.830Z,6.31
2023-03-29T07:38:28.273Z,6.44
2023-03-29T07:40:55.070Z,6.60
2023-03-29T07:43:21.702Z,6.87
2023-03-29T07:45:48.947Z,7.01
2023-03-29T07:48:15.379Z,7.28
2023-03-29T07:50:43.134Z,7.33
2023-03-29T07:53:10.278Z,7.26
2023-03-29T07:55:37.978Z,7.37
2023-03-29T07:58:04.294Z,7.48
2023-03-29T08:00:30.638Z,7.34
2023-03-29T08:02:57.639Z,7.63
2023-03-29T08:05:37.541Z,8.05
2023-03-29T08:08:10.209Z,8.53
2023-03-29T08:10:38.973Z,8.64
2023-03-29T08:13:08.223Z,8.53
2023-03-29T08:15:36.776Z,8.59
2023-03-29T08:18:03.541Z,8.36
2023-03-29T08:20:29.878Z,8.30
2023-03-29T08:22:56.704Z,8.34
2023-03-29T08:25:23.501Z,8.13
2023-03-29T08:27:49.922Z,8.12
2023-03-29T08:30:16.692Z,7.98
2023-03-29T08:32:43.028Z,8.10
2023-03-29T08:35:09.812Z,7.86
2023-03-29T08:37:37.774Z,7.67
2023-03-29T08:40:05.489Z,7.91
2023-03-29T08:42:41.017Z,7.69
2023-03-29T08:45:16.174Z,7.88
2023-03-29T08:48:04.243Z,7.86
2023-03-29T08:50:37.757Z,7.84
2023-03-29T08:53:17.510Z,8.18
2023-03-29T08:55:47.200Z,8.57
2023-03-29T08:58:19.256Z,9.00
2023-03-29T09:00:50.608Z,8.84
2023-03-29T09:03:24.974Z,9.48
2023-03-29T09:05:57.624Z,9.31
2023-03-29T09:08:25.052Z,9.70
2023-03-29T09:11:23.056Z,9.80
2023-03-29T09:14:08.578Z,9.36
2023-03-29T09:16:49.102Z,9.06
2023-03-29T09:19:54.969Z,9.13
2023-03-29T09:22:22.703Z,9.01
2023-03-29T09:24:54.984Z,9.16
2023-03-29T09:27:31.244Z,9.47
2023-03-29T09:30:09.986Z,9.37
2023-03-29T09:32:47.550Z,9.66
2023-03-29T09:35:24.254Z,9.70
2023-03-29T09:37:52.515Z,10.25
2023-03-29T09:40:26.082Z,9.75
2023-03-29T09:42:55.418Z,9.82
2023-03-29T09:45:21.822Z,10.03
2023-03-29T09:48:13.772Z,10.29
2023-03-29T09:50:48.703Z,10.16
2023-03-29T09:53:16.113Z,10.14
2023-03-29T09:55:44.782Z,9.79
2023-03-29T09:58:15.169Z,9.88
2023-03-29T10:00:42.387Z,9.52
2023-03-29T10:03:10.579Z,9.82
2023-03-29T10:05:37.849Z,10.11
2023-03-29T10:08:19.590Z,10.08
2023-03-29T10:10:47.059Z,10.17
2023-03-29T10:13:20.189Z,10.67
2023-03-29T10:15:58.239Z,10.26
2023-03-29T10:18:27.305Z,10.18
2023-03-29T10:21:00.153Z,10.17
2023-03-29T10:23:33.185Z,9.89
2023-03-29T10:26:04.091Z,9.63
2023-03-29T10:28:32.028Z,9.78
2023-03-29T10:31:01.726Z,9.61
2023-03-29T10:33:32.330Z,9.65
2023-03-29T10:36:00.445Z,9.75
2023-03-29T10:38:29.321Z,10.30
2023-03-29T10:41:05.353Z,10.46
2023-03-29T10:43:38.303Z,10.28
2023-03-29T10:46:19.882Z,10.44
2023-03-29T10:48:57.618Z,10.18
2023-03-29T10:51:27.895Z,10.29
2023-03-29T10:53:55.155Z,10.37
2023-03-29T10:56:41.674Z,10.75
2023-03-29T10:59:28.005Z,10.75
2023-03-29T11:02:13.157Z,11.38
2023-03-29T11:05:06.259Z,11.08
2023-03-29T11:07:41.344Z,11.31
2023-03-29T11:10:11.562Z,11.33
2023-03-29T11:12:49.087Z,11.70
2023-03-29T11:15:27.514Z,11.92
2023-03-29T11:18:06.233Z,12.69
2023-03-29T11:20:48.256Z,12.36
2023-03-29T11:23:49.935Z,12.32
2023-03-29T11:26:20.774Z,12.12
2023-03-29T11:29:21.486Z,11.98
2023-03-29T11:31:56.329Z,11.92
2023-03-29T11:34:37.138Z,11.65
2023-03-29T11:37:19.379Z,11.47
2023-03-29T11:40:05.560Z,11.69
2023-03-29T11:42:36.270Z,11.66
2023-03-29T11:45:06.477Z,12.06
2023-03-29T11:47:37.163Z,12.73
2023-03-29T11:50:08.209Z,12.47
2023-03-29T11:52:44.430Z,12.59
2023-03-29T11:55:24.025Z,12.70
2023-03-29T11:58:02.074Z,12.69
2023-03-29T12:00:37.972Z,12.55
2023-03-29T12:03:21.787Z,13.45
2023-03-29T12:05:52.109Z,13.25
2023-03-29T12:08:21.318Z,13.06
2023-03-29T12:11:00.251Z,13.41
2023-03-29T12:13:58.757Z,13.20
2023-03-29T12:16:54.719Z,12.67
2023-03-29T12:19:31.804Z,12.95
2023-03-29T12:22:00.951Z,13.13
2023-03-29T12:24:32.144Z,13.31
2023-03-29T12:27:21.110Z,13.50
2023-03-29T12:30:10.474Z,13.27
2023-03-29T12:32:50.132Z,13.66
2023-03-29T12:35:25.393Z,14.03
2023-03-29T12:38:07.171Z,13.60
2023-03-29T12:40:45.985Z,13.63
2023-03-29T12:43:32.169Z,14.35
2023-03-29T12:46:07.241Z,14.23
2023-03-29T12:48:37.213Z,14.11
2023-03-29T12:51:07.516Z,13.53
2023-03-29T12:53:43.832Z,13.13
2023-03-29T12:56:16.735Z,13.29
2023-03-29T12:58:59.589Z,13.33
2023-03-29T13:01:26.555Z,13.35
2023-03-29T13:03:59.320Z,13.63
2023-03-29T13:07:03.068Z,13.67
2023-03-29T13:09:48.353Z,14.18
2023-03-29T13:12:37.283Z,13.98
2023-03-29T13:15:19.359Z,13.60
2023-03-29T13:17:57.993Z,13.62
2023-03-29T13:20:38.174Z,13.56
2023-03-29T13:23:26.761Z,13.57
2023-03-29T13:26:19.605Z,13.36
2023-03-29T13:29:15.728Z,13.25
2023-03-29T13:31:47.393Z,13.03
2023-03-29T13:34:40.403Z,13.28
2023-03-29T13:37:39.445Z,12.97
2023-03-29T13:40:43.384Z,12.94
2023-03-29T13:43:20.104Z,12.97
2023-03-29T13:45:59.214Z,12.71
2023-03-29T13:48:36.438Z,12.76
2023-03-29T13:51:18.706Z,12.51
2023-03-29T13:54:16.113Z,12.41
2023-03-29T13:56:52.837Z,12.31
2023-03-29T13:59:28.280Z,12.27
2023-03-29T14:02:01.301Z,12.41
2023-03-29T14:04:37.805Z,12.43
2023-03-29T14:07:08.405Z,12.56
2023-03-29T14:09:42.404Z,12.46
2023-03-29T14:12:13.109Z,12.35
2023-03-29T14:14:57.830Z,12.36
2023-03-29T14:17:26.080Z,12.06
2023-03-29T14:19:57.964Z,12.44
2023-03-29T14:22:24.542Z,12.20
2023-03-29T14:24:55.002Z,12.70
2023-03-29T14:27:22.142Z,12.87
2023-03-29T14:29:51.117Z,12.79
2023-03-29T14:32:28.578Z,13.16
2023-03-29T14:34:54.989Z,13.16
2023-03-29T14:37:25.186Z,12.64
2023-03-29T14:39:52.066Z,12.57
2023-03-29T14:42:21.890Z,12.71
2023-03-29T14:44:50.527Z,12.84
2023-03-29T14:47:24.844Z,13.11
2023-03-29T14:49:51.823Z,12.32
2023-03-29T14:52:19.825Z,12.39
2023-03-29T14:54:51.132Z,12.33
2023-03-29T14:57:20.610Z,12.50
2023-03-29T15:00:02.099Z,12.99
2023-03-29T15:02:31.332Z,12.64
2023-03-29T15:05:05.860Z,12.32
2023-03-29T15:07:34.838Z,12.56
2023-03-29T15:10:04.954Z,13.04
2023-03-29T15:12:35.999Z,13.06
2023-03-29T15:15:04.257Z,13.36
2023-03-29T15:17:50.379Z,13.09
2023-03-29T15:20:32.548Z,12.30
2023-03-29T15:23:08.486Z,12.36
2023-03-29T15:25:46.555Z,12.63
2023-03-29T15:28:34.290Z,12.42
2023-03-29T15:31:13.218Z,12.53
2023-03-29T15:33:41.932Z,12.62
2023-03-29T15:36:10.792Z,12.82
2023-03-29T15:38:44.092Z,12.98
2023-03-29T15:41:14.009Z,12.94
2023-03-29T15:43:41.226Z,12.67
2023-03-29T15:46:08.130Z,13.07
2023-03-29T15:48:35.176Z,13.15
2023-03-29T15:51:04.826Z,13.12
2023-03-29T15:53:32.959Z,12.65
2023-03-29T15:56:02.869Z,12.73
2023-03-29T15:58:32.311Z,12.69
2023-03-29T16:01:11.210Z,12.72
2023-03-29T16:03:39.235Z,11.99
2023-03-29T16:06:06.125Z,11.95
2023-03-29T16:08:33.112Z,12.03
2023-03-29T16:10:59.432Z,11.94
2023-03-29T16:13:25.874Z,12.02
2023-03-29T16:15:52.783Z,12.24
2023-03-29T16:18:19.108Z,12.37
2023-03-29T16:20:46.475Z,12.34
2023-03-29T16:23:13.388Z,12.12
2023-03-29T16:25:40.296Z,11.98
2023-03-29T16:28:09.973Z,11.92
2023-03-29T16:30:37.907Z,11.63
2023-03-29T16:33:08.481Z,11.74
2023-03-29T16:35:38.350Z,11.97
2023-03-29T16:38:04.881Z,12.03
2023-03-29T16:40:31.599Z,12.08
2023-03-29T16:42:58.078Z,12.09
2023-03-29T16:45:24.721Z,12.19
2023-03-29T16:47:51.418Z,12.23
2023-03-29T16:50:19.752Z,12.13
2023-03-29T16:52:48.879Z,11.88
2023-03-29T16:55:19.206Z,11.52
2023-03-29T16:57:47.048Z,11.48
2023-03-29T17:00:15.841Z,11.50
2023-03-29T17:02:44.052Z,11.28
2023-03-29T17:05:12.303Z,11.17
2023-03-29T17:07:39.577Z,11.25
2023-03-29T17:10:10.869Z,11.17
2023-03-29T17:12:37.300Z,11.17
2023-03-29T17:15:05.160Z,11.13
2023-03-29T17:17:32.046Z,11.00
2023-03-29T17:19:58.427Z,10.87
2023-03-29T17:22:25.335Z,10.75
2023-03-29T17:24:52.027Z,10.58
2023-03-29T17:27:18.765Z,10.34
2023-03-29T17:29:45.117Z,10.33
2023-03-29T17:32:11.873Z,10.32
2023-03-29T17:34:38.612Z,10.32
2023-03-29T17:37:05.210Z,10.19
2023-03-29T17:39:32.063Z,10.23
2023-03-29T17:41:58.416Z,10.24
2023-03-29T17:44:24.736Z,10.27
2023-03-29T17:46:51.770Z,9.93
2023-03-29T17:49:18.090Z,9.75
2023-03-29T17:51:44.402Z,9.70
2023-03-29T17:54:11.424Z,9.69
2023-03-29T17:56:37.840Z,9.60
2023-03-29T17:59:04.499Z,9.57
2023-03-29T18:01:30.933Z,9.63
2023-03-29T18:03:57.342Z,9.49
2023-03-29T18:06:24.044Z,9.14
2023-03-29T18:08:50.580Z,9.16
2023-03-29T18:11:22.228Z,9.21
2023-03-29T18:13:52.263Z,9.22
2023-03-29T18:16:20.706Z,9.33
2023-03-29T18:18:47.716Z,9.37
2023-03-29T18:21:16.310Z,9.31
2023-03-29T18:23:47.270Z,9.22
2023-03-29T18:26:16.632Z,9.17
2023-03-29T18:28:48.227Z,9.26
2023-03-29T18:31:15.987Z,9.27
2023-03-29T18:33:42.437Z,9.30
2023-03-29T18:36:12.536Z,9.09
2023-03-29T18:38:40.594Z,9.00
2023-03-29T18:41:08.627Z,9.13
2023-03-29T18:43:35.912Z,9.08
2023-03-29T18:46:02.817Z,9.12
2023-03-29T18:48:29.508Z,9.16
2023-03-29T18:50:57.121Z,9.12
2023-03-29T18:53:24.442Z,9.05
2023-03-29T18:55:50.869Z,8.84
2023-03-29T18:58:17.699Z,8.82
2023-03-29T19:00:44.919Z,8.93
2023-03-29T19:03:11.301Z,9.09
2023-03-29T19:05:39.133Z,9.24
2023-03-29T19:08:07.264Z,9.22
2023-03-29T19:10:38.589Z,9.18
2023-03-29T19:13:06.333Z,9.21
2023-03-29T19:15:34.499Z,9.06
2023-03-29T19:18:01.023Z,9.00
2023-03-29T19:20:27.947Z,8.93
2023-03-29T19:22:54.273Z,8.81
2023-03-29T19:25:20.654Z,8.72
2023-03-29T19:27:48.019Z,8.72
2023-03-29T19:30:14.590Z,8.57
2023-03-29T19:32:40.936Z,8.62
2023-03-29T19:35:09.842Z,8.63
2023-03-29T19:37:36.441Z,8.68
2023-03-29T19:40:06.703Z,8.70
2023-03-29T19:42:35.931Z,8.67
2023-03-29T19:45:03.919Z,8.51
2023-03-29T19:47:30.471Z,8.45
2023-03-29T19:49:58.356Z,8.37
2023-03-29T19:52:26.096Z,8.24
2023-03-29T19:54:52.443Z,8.26
2023-03-29T19:57:18.869Z,8.17
2023-03-29T19:59:45.830Z,8.03
2023-03-29T20:02:12.556Z,7.85
2023-03-29T20:04:39.521Z,7.81
2023-03-29T20:07:07.158Z,7.86
2023-03-29T20:09:33.897Z,7.89
2023-03-29T20:12:00.204Z,7.87
2023-03-29T20:14:27.019Z,7.84
2023-03-29T20:16:54.543Z,7.58
2023-03-29T20:19:26.425Z,7.46
2023-03-29T20:21:58.257Z,7.28
2023-03-29T20:24:25.166Z,7.33
2023-03-29T20:26:52.191Z,7.39
2023-03-29T20:29:18.906Z,7.41
2023-03-29T20:31:45.983Z,7.41
2023-03-29T20:34:12.594Z,7.46
2023-03-29T20:36:40.340Z,7.58
2023-03-29T20:39:07.976Z,7.57
2023-03-29T20:41:38.212Z,7.54
2023-03-29T20:44:05.554Z,7.51
2023-03-29T20:46:35.085Z,7.53
2023-03-29T20:49:04.363Z,7.55
2023-03-29T20:51:32.025Z,7.59
2023-03-29T20:54:03.833Z,7.60
2023-03-29T20:56:40.159Z,7.64
2023-03-29T20:59:10.349Z,7.68
2023-03-29T21:01:41.097Z,7.66
2023-03-29T21:04:08.306Z,7.65
2023-03-29T21:06:35.480Z,7.61
2023-03-29T21:09:02.081Z,7.54
2023-03-29T21:11:28.527Z,7.50
2023-03-29T21:13:55.034Z,7.40
2023-03-29T21:16:21.494Z,7.35
2023-03-29T21:18:47.823Z,7.34
2023-03-29T21:21:14.145Z,7.32
2023-03-29T21:23:40.769Z,7.27
2023-03-29T21:26:09.989Z,7.21
2023-03-29T21:28:37.461Z,7.19
2023-03-29T21:31:06.729Z,7.21
2023-03-29T21:33:33.797Z,7.25
2023-03-29T21:36:00.799Z,7.31
2023-03-29T21:38:28.161Z,7.19
2023-03-29T21:40:55.295Z,7.21
2023-03-29T21:43:21.607Z,7.57
2023-03-29T21:45:49.798Z,7.92
2023-03-29T21:48:16.986Z,8.18
2023-03-29T21:50:43.762Z,8.26
2023-03-29T21:53:10.424Z,8.29
2023-03-29T21:55:36.758Z,8.37
2023-03-29T21:58:04.912Z,8.45
2023-03-29T22:00:31.562Z,8.46
2023-03-29T22:02:58.014Z,8.49
2023-03-29T22:05:26.482Z,8.56
2023-03-29T22:07:52.950Z,8.58
2023-03-29T22:10:23.011Z,8.67
2023-03-29T22:12:51.458Z,8.73
2023-03-29T22:15:20.535Z,8.78
2023-03-29T22:17:47.047Z,8.79
2023-03-29T22:20:14.626Z,8.74
2023-03-29T22:22:46.487Z,8.72
2023-03-29T22:25:13.073Z,8.72
2023-03-29T22:27:39.941Z,8.68
2023-03-29T22:30:06.899Z,8.60
2023-03-29T22:32:33.347Z,8.52
2023-03-29T22:35:00.185Z,8.48
2023-03-29T22:37:26.575Z,8.39
2023-03-29T22:39:53.005Z,8.30
2023-03-29T22:42:20.473Z,8.34
2023-03-29T22:44:46.802Z,8.34
2023-03-29T22:47:13.107Z,8.31
2023-03-29T22:49:40.001Z,8.13
2023-03-29T22:52:06.703Z,8.01
2023-03-29T22:54:33.133Z,7.94
2023-03-29T22:56:59.907Z,7.99
2023-03-29T22:59:27.166Z,8.02
2023-03-29T23:01:53.745Z,8.03
2023-03-29T23:04:20.617Z,8.02
2023-03-29T23:06:46.954Z,8.00
2023-03-29T23:09:14.551Z,7.97
2023-03-29T23:11:43.142Z,7.96
2023-03-29T23:14:09.579Z,7.94
2023-03-29T23:16:37.208Z,7.89
2023-03-29T23:19:04.816Z,7.90
2023-03-29T23:21:31.482Z,8.08
2023-03-29T23:23:58.247Z,8.39
2023-03-29T23:26:24.559Z,8.50
2023-03-29T23:28:52.035Z,8.49
2023-03-29T23:31:18.607Z,8.45
2023-03-29T23:33:45.392Z,8.47
2023-03-29T23:36:14.857Z,8.44
2023-03-29T23:38:43.310Z,8.40
2023-03-29T23:41:12.552Z,8.43
2023-03-29T23:43:44.154Z,8.35
2023-03-29T23:46:16.199Z,8.48
2023-03-29T23:48:47.468Z,8.56
2023-03-29T23:51:13.847Z,8.77
2023-03-29T23:53:40.174Z,8.98
2023-03-29T23:56:08.087Z,9.03
2023-03-29T23:58:37.325Z,9.12
